Reese River Valley, Nevada Weather observations

Data are for 10 minute period ending at time listed.
 Day   Time   Solar   Ave.   Ave.  Ave.  Vector  Max.   Baro.   Total    
  of    of     Rad.   Air    Rel.  Wind   Wind   Wind  Press.  Precip.   
Year   Day            Temp.  Hum.  Speed  Dir.   Gust                    
2015   (PST)  Kw/m2    F      %     mph   deg.    mph    mb.     in.     
-------------------------------------------------------------------------
  28    4:30   0.00   30.9    94    3.8   218     5.1   820.6    0.00 
  28    4:40   0.00   30.8    94    4.2   217     5.2   820.7    0.00 
  28    4:50   0.00   30.9    95    3.7   207     4.5   820.7    0.00 
  28    5:00   0.00   31.0    94    4.1   232     5.1   820.7    0.00 
  28    5:10   0.00   30.9    95    4.2   226     5.1   820.8    0.00 
  28    5:20   0.00   31.0    95    4.3   226     5.1   820.9    0.00 
  28    5:30   0.00   31.0    95    3.9   211     5.1   821.0    0.00 
  28    5:40   0.00   31.1    95    3.4   203     4.0   821.0    0.00 
  28    5:50   0.00   31.2    95    3.3   219     4.5   821.0    0.00 
  28    6:00   0.00   31.3    94    5.0   222     6.6   821.1    0.00 
  28    6:10   0.00   31.3    94    5.7   225     6.8   821.2    0.00 
  28    6:20   0.00   31.5    93    5.7   229     7.5   821.3    0.00 
  28    6:30   0.00   31.2    93    6.1   236     8.3   821.3    0.00 
  28    6:40   0.00   31.0    93    4.7   235     6.3   821.4    0.00 
  28    6:50   0.00   31.0    93    4.2   222     4.9   821.4    0.00 
  28    7:00   0.00   31.2    93    5.0   225     6.0   821.4    0.00 
  28    7:10   0.00   31.4    93    5.5   234     7.2   821.5    0.00 
  28    7:20   0.01   31.8    92    6.1   252     7.7   821.6    0.00 
  28    7:30   0.01   32.2    91    6.8   233     9.8   821.7    0.00 
  28    7:40   0.02   32.8    90    7.6   222    10.0   821.9    0.00 
  28    7:50   0.02   33.2    89    5.7   211     7.8   822.0    0.00 
  28    8:00   0.04   33.5    88    4.5   199     6.1   822.0    0.00 
  28    8:10   0.05   33.9    87    4.9   192     6.2   822.0    0.00 
  28    8:20   0.06   34.3    86    6.4   180     9.3   822.0    0.00 
  28    8:30   0.07   34.8    84    7.0   186     9.1   822.0    0.00 
  28    8:40   0.09   35.3    84    4.8   214     7.3   822.0    0.00 
  28    8:50   0.11   35.9    82    4.8   211     6.4   821.9    0.00 
  28    9:00   0.14   36.5    81    5.2   220     7.0   821.9    0.00 
  28    9:10   0.18   37.2    79    5.5   217     8.2   821.9    0.00 
  28    9:20   0.23   37.9    78    7.6   216     9.6   821.7    0.00 
  28    9:30   0.30   39.3    75    6.8   221     9.2   821.6    0.00 
  28    9:40   0.28   39.7    72    7.5   224     9.9   821.5    0.00 
  28    9:50   0.46   40.9    71    6.9   231     9.8   821.4    0.00 
  28   10:00   0.45   41.8    67    6.3   227     9.3   821.3    0.00 
  28   10:10   0.47   42.4    63    4.0   247     7.0   821.3    0.00 
  28   10:20   0.49   43.2    60    3.4   313     7.1   821.4    0.00 
  28   10:30   0.51   43.9    58    4.5     3    10.0   821.4    0.00 
  28   10:40   0.53   44.1    58    7.0    10    10.8   821.4    0.00 
  28   10:50   0.54   44.4    58    7.8     6    11.8   821.3    0.00 
  28   11:00   0.55   44.6    57    7.1     8    11.9   821.2    0.00 
  28   11:10   0.57   44.6    56    8.2    11    11.7   821.2    0.00 
  28   11:20   0.58   45.1    57    7.5     7    12.3   821.1    0.00 
  28   11:30   0.60   44.9    57    6.5     0    11.6   821.1    0.00 
  28   11:40   0.59   45.2    56    5.5    15    10.3   821.1    0.00 
  28   11:50   0.62   45.6    55    5.9   350    10.2   820.9    0.00 
  28   12:00   0.71   46.4    54    6.2    44    11.2   820.9    0.00 
  28   12:10   0.53   46.2    53    6.2    23     8.8   820.8    0.00 
  28   12:20   0.54   46.0    54    6.0    31     8.6   820.6    0.00 
  28   12:30   0.53   46.5    54    6.2    13    10.9   820.5    0.00 
  28   12:40   0.50   46.9    53    4.9    22    10.2   820.3    0.00 
  28   12:50   0.61   46.9    54    7.2    20    11.8   820.2    0.00 
  28   13:00   0.49   46.9    54    7.4    33    12.7   820.1    0.00 
  28   13:10   0.62   47.3    53    6.3    20    10.7   820.1    0.00 
  28   13:20   0.52   47.5    52    5.4    34    11.7   820.0    0.00 
  28   13:30   0.69   48.3    52    5.7    51    12.9   819.9    0.00 
  28   13:40   0.23   47.9    52    4.6    21     9.9   819.9    0.00 
  28   13:50   0.52   48.2    51    5.6    10    10.4   819.8    0.00 
  28   14:00   0.58   49.0    49    5.8     9    11.2   819.7    0.00 
  28   14:10   0.57   49.6    48    8.2    14    13.4   819.7    0.00 
  28   14:20   0.17   48.6    49    8.8    23    13.8   819.8    0.00 
  28   14:30   0.15   47.5    52    8.3    24    13.6   819.7    0.00 
  28   14:40   0.20   47.6    52    8.8    20    12.3   819.7    0.00 
  28   14:50   0.23   47.5    52    7.4    34    12.1   819.7    0.00 
  28   15:00   0.51   49.1    49    9.2    22    13.4   819.6    0.00 
  28   15:10   0.34   49.3    48   10.0    24    16.9   819.6    0.00 
  28   15:20   0.12   47.6    52   11.3    14    15.3   819.7    0.00 
  28   15:30   0.09   46.9    53    9.2     8    12.8   819.7    0.00 
  28   15:40   0.10   47.0    52    7.8    12    10.8   819.8    0.00 
  28   15:50   0.07   46.9    52    9.1    11    13.8   819.8    0.00 
  28   16:00   0.06   46.6    53   10.0     3    13.4   819.8    0.00 
  28   16:10   0.05   46.3    54    9.2     2    13.1   819.8    0.00 
  28   16:20   0.04   46.1    53   10.2     9    13.4   819.8    0.00 
  28   16:30   0.04   45.9    52   10.1    10    14.2   819.7    0.00 
  28   16:40   0.03   45.5    53    9.5     7    13.2   819.8    0.00 
  28   16:50   0.01   45.0    55    8.4     2    11.6   819.8    0.00 
  28   17:00   0.01   44.2    58    6.9   343     9.4   819.8    0.00 
  28   17:10   0.00   43.4    61    7.6   334     9.6   819.7    0.00 
  28   17:20   0.00   42.5    63    7.7   333    10.4   819.7    0.00 
  28   17:30   0.00   41.3    65    7.3   328     9.9   819.7    0.00 
  28   17:40   0.00   40.7    66    6.5   344    10.4   819.7    0.00 
  28   17:50   0.00   39.8    67    3.5    36     6.3   819.8    0.00 
  28   18:00   0.00   39.6    68    4.4    14     9.2   820.0    0.00 
  28   18:10   0.00   38.6    69    2.3    48     3.4   820.2    0.00 
  28   18:20   0.00   38.2    71    3.4    34     6.1   820.3    0.00 
  28   18:30   0.00   38.3    70    3.1    25     5.5   820.4    0.00 
  28   18:40   0.00   37.6    72    3.8     7     5.8   820.4    0.00 
  28   18:50   0.00   36.7    74    2.3    66     3.3   820.5    0.00 
  28   19:00   0.00   36.6    74    2.7    49     4.5   820.5    0.00 
  28   19:10   0.00   37.1    74    2.9    21     6.1   820.5    0.00 
  28   19:20   0.00   36.9    74    1.8    20     4.6   820.6    0.00 
  28   19:30   0.00   37.6    74    5.8   311    11.0   820.7    0.00 
  28   19:40   0.00   37.4    74    3.9    32     6.4   820.8    0.00 
  28   19:50   0.00   37.8    73    2.0    56     4.4   820.8    0.00 
  28   20:00   0.00   36.3    76    1.5    30     2.3   820.8    0.00 
  28   20:10   0.00   36.2    75    1.0     7     2.2   820.8    0.00 
  28   20:20   0.00   33.8    79    1.5    63     3.1   820.9    0.00 
  28   20:30   0.00   33.2    82    0.6   104     2.3   820.9    0.00 
  28   20:40   0.00   32.6    83    3.0   194     5.2   821.1    0.00 
  28   20:50   0.00   31.9    86    3.5   170     4.5   821.1    0.00 
  28   21:00   0.00   31.7    87    4.1   211     5.3   821.2    0.00 
  28   21:10   0.00   32.4    88    2.6   133     3.4   821.3    0.00 
  28   21:20   0.00   33.8    86    2.0   146     3.4   821.3    0.00 
  28   21:30   0.00   33.9    85    1.7   225     4.7   821.3    0.00 
  28   21:40   0.00   34.0    85    2.4   225     3.7   821.3    0.00 
  28   21:50   0.00   34.5    84    3.5   227     4.4   821.3    0.00 
  28   22:00   0.00   34.4    84    2.8   213     3.9   821.3    0.00 
  28   22:10   0.00   34.6    84    2.1   192     2.6   821.3    0.00 
  28   22:20   0.00   35.2    82    2.2   215     2.6   821.3    0.00 
  28   22:30   0.00   35.2    82    1.9   186     2.6   821.3    0.00 
  28   22:40   0.00   35.4    82    2.0   183     2.8   821.3    0.00 
  28   22:50   0.00   35.3    82    2.3   167     3.2   821.4    0.00 
  28   23:00   0.00   35.5    82    2.4   109     4.8   821.4    0.00 
  28   23:10   0.00   36.0    81    6.0    68     8.4   821.3    0.00 
  28   23:20   0.00   35.3    83    5.3    58     7.5   821.3    0.00 
  28   23:30   0.00   34.6    85    3.6    75     4.7   821.4    0.00 
  28   23:40   0.00   34.7    84    2.6    44     4.4   821.4    0.00 
  28   23:50   0.00   34.6    84    2.0    51     2.9   821.3    0.00 
  29    0:00   0.00   33.2    85    3.1   284     5.7   821.2    0.00 
  29    0:10   0.00   31.0    87    4.3   211     5.6   821.3    0.00 
  29    0:20   0.00   31.4    90    4.0   164     6.1   821.2    0.00 
  29    0:30   0.00   32.0    90    3.8   158     4.7   821.2    0.00 
  29    0:40   0.00   32.1    90    4.2   130     5.6   821.2    0.00 
  29    0:50   0.00   32.5    90    4.3   126     5.5   821.1    0.00 
  29    1:00   0.00   32.9    89    3.0   164     4.0   821.2    0.00 
  29    1:10   0.00   33.1    90    1.5   184     2.7   821.1    0.00 
  29    1:20   0.00   32.5    90    0.8   255     1.9   821.0    0.00 
  29    1:30   0.00   32.2    90    2.2   225     3.7   821.0    0.00 
  29    1:40   0.00   32.3    90    2.8   227     3.9   821.0    0.00 
  29    1:50   0.00   32.3    90    2.7   234     4.1   821.0    0.00 
  29    2:00   0.00   32.4    90    1.6   211     3.9   820.9    0.00 
  29    2:10   0.00   32.7    90    2.0   200     3.6   820.9    0.00 
  29    2:20   0.00   32.7    89    2.7   224     4.2   820.8    0.00 
  29    2:30   0.00   33.0    89    1.9   187     4.0   820.7    0.00 
  29    2:40   0.00   33.3    89    2.3   154     4.0   820.6    0.00 
  29    2:50   0.00   33.3    90    2.9   144     4.5   820.6    0.00 
  29    3:00   0.00   33.4    90    1.4   148     2.1   820.4    0.00 
  29    3:10   0.00   33.1    90    0.6   221     1.3   820.4    0.00 
  29    3:20   0.00   32.4    90    2.5   222     3.4   820.4    0.00 
  29    3:30   0.00   32.2    91    2.5   210     3.4   820.4    0.00 
  29    3:40   0.00   32.7    91    2.0   183     3.1   820.3    0.00 
  29    3:50   0.00   33.0    91    2.6   167     3.2   820.2    0.00 
  29    4:00   0.00   33.3    90    2.5   172     3.1   820.3    0.00 
  29    4:10   0.00   33.1    90    3.1   192     4.5   820.2    0.00 
  29    4:20   0.00   33.2    91    3.0   166     3.9   820.2    0.00 

Return to Reese River Valley graphs page.


Western Regional Climate Center,wrcc@dri.edu